Time;durP1;ratioP1;P1;durP2;ratioP2;P2;SDS_P1;SDS_P2;PMS_P1;PMS_P2;Temp;Humidity;BMP_temperature;BMP_pressure;BME280_temperature;BME280_humidity;BME280_pressure;Samples;Min_cycle;Max_cycle;Signal;HPM_P1;HPM_P2
2023/05/12 00:00:20;;;;;;;15.80;7.00;;;;;;;10.16;50.17;98847.25;437510;1248;99233;-43
2023/05/12 00:10:44;;;;;;;15.50;7.20;;;;;;;10.00;50.61;98852.27;437296;1250;110186;-43
2023/05/12 00:20:48;;;;;;;8.90;6.80;;;;;;;9.91;50.89;98849.59;437401;1250;99209;-41
2023/05/12 00:30:54;;;;;;;10.40;6.50;;;;;;;9.83;51.22;98850.65;437484;1250;110514;-43
2023/05/12 00:41:02;;;;;;;15.20;7.40;;;;;;;9.81;51.42;98854.77;437494;1248;107237;-43
2023/05/12 00:51:06;;;;;;;10.30;7.20;;;;;;;9.75;51.73;98853.54;437216;1250;98027;-42
2023/05/12 01:01:10;;;;;;;9.10;6.00;;;;;;;9.65;52.20;98849.24;437361;1247;110979;-44
2023/05/12 01:11:18;;;;;;;11.60;6.30;;;;;;;9.63;52.56;98854.63;437498;1250;98563;-43
2023/05/12 01:21:21;;;;;;;9.90;6.60;;;;;;;9.54;52.53;98852.24;438105;1247;99253;-42
2023/05/12 01:31:26;;;;;;;12.10;6.40;;;;;;;9.46;52.64;98858.65;437388;1247;99208;-43
2023/05/12 01:41:30;;;;;;;7.10;5.70;;;;;;;9.41;52.97;98856.90;437308;1247;107975;-42
2023/05/12 01:51:34;;;;;;;11.70;6.90;;;;;;;9.39;53.14;98864.75;437120;1251;98784;-43
2023/05/12 02:01:37;;;;;;;15.20;6.80;;;;;;;9.28;53.21;98870.59;437419;1247;111382;-42
2023/05/12 02:11:41;;;;;;;14.00;6.40;;;;;;;9.16;53.42;98871.14;437391;1247;108015;-43
2023/05/12 02:21:45;;;;;;;11.60;6.60;;;;;;;8.99;53.63;98870.75;437294;1252;98827;-41
2023/05/12 02:31:49;;;;;;;9.90;6.40;;;;;;;8.92;54.04;98868.78;437275;1261;99269;-42
2023/05/12 02:41:52;;;;;;;9.20;6.40;;;;;;;8.80;54.16;98868.80;437369;1247;109194;-42
2023/05/12 02:51:57;;;;;;;13.00;7.30;;;;;;;8.72;54.51;98861.85;437559;1248;98932;-42
2023/05/12 03:02:00;;;;;;;10.00;5.80;;;;;;;8.64;54.76;98862.35;437369;1251;97902;-41
2023/05/12 03:12:04;;;;;;;13.30;6.80;;;;;;;8.61;54.89;98870.04;437459;1251;107617;-42
2023/05/12 03:22:08;;;;;;;11.90;7.00;;;;;;;8.61;55.08;98870.48;437435;1250;99640;-43
2023/05/12 03:32:12;;;;;;;11.10;5.90;;;;;;;8.74;55.16;98869.42;437385;1253;98010;-44
2023/05/12 03:42:17;;;;;;;12.10;7.50;;;;;;;10.22;54.93;98865.85;437207;1251;398546;-42
2023/05/12 03:52:21;;;;;;;12.20;6.10;;;;;;;11.47;53.85;98859.22;437410;1248;99218;-42
2023/05/12 04:02:24;;;;;;;14.00;5.40;;;;;;;12.70;52.69;98863.88;437301;1253;108522;-42
2023/05/12 04:12:28;;;;;;;11.00;5.90;;;;;;;13.26;51.65;98872.21;437362;1254;98899;-42
2023/05/12 04:22:32;;;;;;;8.90;5.80;;;;;;;13.69;50.70;98879.41;437390;1248;111531;-43
2023/05/12 04:32:36;;;;;;;10.80;5.50;;;;;;;14.23;49.87;98881.86;437235;1253;107723;-42
2023/05/12 04:42:40;;;;;;;11.20;5.50;;;;;;;14.80;48.98;98884.83;437427;1252;99324;-42
2023/05/12 04:52:47;;;;;;;8.00;5.30;;;;;;;15.15;48.62;98885.27;437258;1251;107981;-42
2023/05/12 05:02:51;;;;;;;12.30;4.90;;;;;;;15.28;47.46;98890.69;437517;1248;99237;-44
2023/05/12 05:12:55;;;;;;;10.40;5.50;;;;;;;15.17;47.21;98898.35;437341;1260;111357;-43
2023/05/12 05:23:02;;;;;;;13.00;5.70;;;;;;;15.08;46.80;98894.64;437390;1261;107221;-42
2023/05/12 05:33:11;;;;;;;8.50;5.20;;;;;;;14.69;46.62;98897.02;437325;1248;99861;-42
2023/05/12 05:43:15;;;;;;;11.90;6.10;;;;;;;14.75;47.22;98898.30;437269;1248;109407;-44
2023/05/12 05:53:19;;;;;;;6.90;5.00;;;;;;;15.24;46.87;98899.91;437451;1248;99254;-42
2023/05/12 06:03:24;;;;;;;14.50;5.40;;;;;;;15.40;46.63;98907.33;437425;1248;111531;-41
2023/05/12 06:13:31;;;;;;;9.70;5.10;;;;;;;15.12;46.18;98910.92;437269;1253;108042;-43
2023/05/12 06:23:35;;;;;;;9.40;5.40;;;;;;;15.04;46.96;98922.02;437155;1248;99218;-42
2023/05/12 06:33:39;;;;;;;8.80;4.80;;;;;;;15.52;47.05;98923.81;437302;1251;108287;-42
2023/05/12 06:43:43;;;;;;;9.70;5.50;;;;;;;15.69;46.73;98927.67;437419;1248;99208;-43
2023/05/12 06:53:50;;;;;;;8.70;5.10;;;;;;;15.44;46.73;98932.59;437354;1250;113065;-43
2023/05/12 07:03:54;;;;;;;6.40;5.10;;;;;;;15.24;47.26;98934.54;437460;1260;106542;-43
2023/05/12 07:13:58;;;;;;;7.30;4.00;;;;;;;15.45;47.99;98939.26;437504;1251;97941;-42
2023/05/12 07:24:02;;;;;;;9.00;5.20;;;;;;;15.93;47.31;98938.70;437331;1251;108092;-42
2023/05/12 07:34:06;;;;;;;9.50;4.90;;;;;;;16.02;47.43;98930.48;437339;1251;98390;-44
2023/05/12 07:44:10;;;;;;;11.80;4.20;;;;;;;16.33;46.84;98933.91;437192;1251;111807;-45
2023/05/12 07:54:13;;;;;;;14.40;4.60;;;;;;;16.49;47.12;98937.35;437334;1251;108586;-47
2023/05/12 08:04:17;;;;;;;9.00;3.90;;;;;;;16.99;46.23;98936.37;437456;1248;99257;-43
2023/05/12 08:24:24;;;;;;;8.50;3.90;;;;;;;17.64;44.60;98936.02;437266;1254;99684;-42
2023/05/12 08:34:29;;;;;;;12.20;3.50;;;;;;;17.81;44.03;98932.88;437061;1247;111497;-43
2023/05/12 08:44:34;;;;;;;7.80;3.70;;;;;;;18.36;43.42;98937.05;437500;1247;107819;-43
2023/05/12 08:54:42;;;;;;;3.30;2.90;;;;;;;18.70;42.58;98936.52;437372;1248;99211;-42
2023/05/12 09:05:03;;;;;;;8.30;3.30;;;;;;;18.94;41.91;98948.41;437248;1251;107371;-43
2023/05/12 09:15:10;;;;;;;7.20;4.80;;;;;;;18.79;41.30;98940.82;437401;1251;98881;-43
2023/05/12 09:25:17;;;;;;;9.60;3.90;;;;;;;18.81;41.34;98944.61;437346;1251;110893;-43
2023/05/12 09:35:21;;;;;;;8.00;3.10;;;;;;;19.20;40.67;98936.99;437179;1247;108688;-43
2023/05/12 09:45:25;;;;;;;3.60;2.80;;;;;;;19.33;39.80;98933.42;437199;1251;99202;-45
2023/05/12 09:55:30;;;;;;;3.10;2.60;;;;;;;19.36;39.39;98929.70;437080;1247;108350;-41
2023/05/12 10:05:35;;;;;;;4.70;2.80;;;;;;;19.46;38.68;98930.13;437334;1247;98257;-45
2023/05/12 10:15:39;;;;;;;10.20;3.80;;;;;;;19.51;38.22;98928.90;437114;1248;111803;-44
2023/05/12 10:25:43;;;;;;;8.80;2.90;;;;;;;19.84;38.30;98921.13;437377;1248;106914;-43
2023/05/12 10:35:49;;;;;;;8.70;3.00;;;;;;;19.73;37.97;98914.35;437274;1246;99253;-42
2023/05/12 10:46:14;;;;;;;7.70;3.30;;;;;;;19.81;38.05;98914.17;437304;1251;106686;-43
2023/05/12 10:56:21;;;;;;;4.80;2.70;;;;;;;19.80;37.23;98916.38;437494;1247;98506;-43
2023/05/12 11:06:28;;;;;;;5.50;2.20;;;;;;;20.10;36.32;98920.59;437308;1246;109930;-41
2023/05/12 11:16:31;;;;;;;5.70;2.60;;;;;;;20.14;35.81;98924.57;437398;1247;106511;-42
2023/05/12 11:36:45;;;;;;;4.00;2.50;;;;;;;20.09;35.70;98926.61;437249;1251;107017;-43
2023/05/12 11:46:55;;;;;;;4.90;2.60;;;;;;;19.98;35.60;98926.41;437205;1247;99874;-45
2023/05/12 12:17:56;;;;;;;6.20;2.40;;;;;;;20.10;35.00;98939.48;437172;1247;99333;-44
2023/05/12 12:28:01;;;;;;;5.20;2.40;;;;;;;19.80;34.65;98942.82;437305;1251;110726;-41
2023/05/12 12:38:05;;;;;;;6.80;3.10;;;;;;;19.53;34.65;98939.29;437363;1247;97959;-42
2023/05/12 12:48:09;;;;;;;4.10;2.50;;;;;;;19.89;34.14;98931.06;437177;1251;113957;-42
2023/05/12 12:58:13;;;;;;;8.70;2.80;;;;;;;20.15;33.32;98930.68;437096;1247;107682;-42
2023/05/12 13:08:17;;;;;;;6.40;2.70;;;;;;;20.26;33.06;98926.70;437336;1247;99543;-43
2023/05/12 13:18:20;;;;;;;4.90;2.20;;;;;;;20.12;32.86;98932.80;437083;1258;106955;-43
2023/05/12 13:28:24;;;;;;;8.40;3.00;;;;;;;19.52;33.79;98929.10;437152;1251;97986;-44
2023/05/12 13:48:31;;;;;;;6.60;2.30;;;;;;;19.46;33.52;98928.88;437231;1250;110452;-43
2023/05/12 13:58:39;;;;;;;6.40;1.90;;;;;;;19.54;33.40;98923.78;437091;1247;98002;-45
2023/05/12 14:08:43;;;;;;;11.70;2.40;;;;;;;19.54;32.15;98928.65;437141;1251;107931;-44
2023/05/12 14:18:46;;;;;;;10.80;3.40;;;;;;;19.27;31.93;98927.52;437016;1251;99241;-43
2023/05/12 14:28:53;;;;;;;2.60;2.20;;;;;;;19.22;32.11;98925.95;437274;1247;113328;-42
2023/05/12 14:38:58;;;;;;;7.40;2.60;;;;;;;19.22;31.78;98929.95;437025;1247;109336;-42
2023/05/12 14:49:02;;;;;;;7.60;2.20;;;;;;;19.22;31.80;98928.67;436899;1247;99218;-43
2023/05/12 15:09:13;;;;;;;2.50;2.10;;;;;;;18.48;31.35;98940.65;437241;1246;98111;-43
2023/05/12 15:19:16;;;;;;;10.80;2.70;;;;;;;18.65;31.74;98934.91;437078;1250;111833;-42
2023/05/12 15:29:20;;;;;;;7.10;3.00;;;;;;;18.53;31.97;98941.39;437133;1247;107873;-41
2023/05/12 15:39:25;;;;;;;9.50;3.40;;;;;;;18.25;32.61;98947.58;437110;1247;99230;-43
2023/05/12 15:49:29;;;;;;;9.30;3.20;;;;;;;18.21;33.02;98951.18;436605;1251;563744;-43
2023/05/12 15:59:37;;;;;;;4.70;2.50;;;;;;;18.12;33.39;98954.45;437168;1250;99287;-43
2023/05/12 16:09:41;;;;;;;6.70;2.30;;;;;;;18.04;33.68;98949.12;437211;1247;112206;-43
2023/05/12 16:19:46;;;;;;;8.30;3.20;;;;;;;17.97;33.87;98945.23;437062;1261;108445;-43
2023/05/12 16:39:54;;;;;;;2.90;2.60;;;;;;;17.62;33.66;98958.33;435899;1248;108116;-42
2023/05/12 16:49:58;;;;;;;5.40;2.70;;;;;;;17.45;34.10;98968.52;435753;1248;99093;-42
2023/05/12 17:00:04;;;;;;;7.30;2.80;;;;;;;17.30;34.63;98973.59;435818;1248;110899;-42
2023/05/12 17:20:12;;;;;;;6.60;3.00;;;;;;;16.81;34.97;98988.84;435844;1253;99212;-44
2023/05/12 17:40:22;;;;;;;7.80;2.60;;;;;;;16.44;35.80;99003.58;436050;1251;99232;-42
2023/05/12 17:50:25;;;;;;;5.70;2.80;;;;;;;16.26;36.06;99005.59;435899;1252;112049;-42
2023/05/12 18:00:29;;;;;;;6.20;4.00;;;;;;;16.05;36.38;99008.77;436155;1253;107601;-43
2023/05/12 18:10:34;;;;;;;5.40;3.10;;;;;;;15.75;36.73;99015.30;435658;1253;99234;-42
2023/05/12 18:20:38;;;;;;;10.00;4.20;;;;;;;15.48;37.16;99021.69;435561;1253;109545;-43
2023/05/12 18:30:42;;;;;;;7.60;3.90;;;;;;;15.21;37.52;99035.95;435607;1253;99250;-43
2023/05/12 18:50:57;;;;;;;6.80;4.00;;;;;;;14.70;38.22;99048.21;435704;1253;107883;-41
2023/05/12 19:01:01;;;;;;;7.00;4.40;;;;;;;14.46;38.59;99053.73;435769;1250;99246;-43
2023/05/12 19:11:05;;;;;;;8.70;5.20;;;;;;;14.28;38.99;99058.64;435793;1253;108394;-42
2023/05/12 19:21:08;;;;;;;15.30;5.20;;;;;;;14.07;39.43;99061.52;435700;1251;99237;-42
2023/05/12 19:31:12;;;;;;;7.80;4.90;;;;;;;13.87;39.69;99066.98;435807;1253;111791;-41
2023/05/12 19:41:20;;;;;;;9.20;5.30;;;;;;;13.66;40.02;99069.59;435942;1261;108548;-41
2023/05/12 19:51:24;;;;;;;8.80;5.50;;;;;;;13.44;40.45;99076.62;435815;1251;99083;-42
2023/05/12 20:01:28;;;;;;;10.60;5.60;;;;;;;13.13;40.90;99073.99;435815;1253;110301;-42
2023/05/12 20:11:32;;;;;;;10.80;5.70;;;;;;;12.96;41.25;99075.95;435822;1247;99900;-42
2023/05/12 20:21:35;;;;;;;10.10;4.60;;;;;;;12.86;41.52;99080.95;435632;1251;111827;-43
2023/05/12 20:31:39;;;;;;;8.60;4.70;;;;;;;12.77;41.80;99078.85;435687;1250;108314;-43
2023/05/12 20:51:52;;;;;;;9.50;4.10;;;;;;;12.59;42.14;99072.20;435808;1251;106653;-43
2023/05/12 21:01:55;;;;;;;8.50;4.80;;;;;;;12.44;42.28;99075.73;435514;1251;97980;-43
2023/05/12 21:12:00;;;;;;;5.40;4.30;;;;;;;12.29;42.57;99076.07;435487;1248;112480;-41
2023/05/12 21:22:03;;;;;;;6.20;4.40;;;;;;;12.16;42.71;99082.60;435588;1253;107153;-42
2023/05/12 21:32:07;;;;;;;11.40;4.90;;;;;;;12.09;43.16;99081.86;435960;1251;99684;-42
2023/05/12 21:42:23;;;;;;;11.10;5.20;;;;;;;11.98;43.18;99081.45;435752;1253;108095;-43
2023/05/12 21:52:27;;;;;;;13.20;5.10;;;;;;;11.83;43.34;99083.36;435709;1250;99276;-43
2023/05/12 22:02:31;;;;;;;8.50;4.80;;;;;;;11.69;43.54;99081.56;435548;1252;112335;-42
2023/05/12 22:12:35;;;;;;;12.30;4.90;;;;;;;11.53;43.82;99082.14;435670;1253;108814;-42
2023/05/12 22:22:39;;;;;;;10.70;5.10;;;;;;;11.33;43.89;99082.91;435631;1251;97983;-42
2023/05/12 22:32:42;;;;;;;15.70;5.80;;;;;;;11.20;44.20;99083.32;435831;1254;107626;-42
2023/05/12 22:42:46;;;;;;;13.10;5.70;;;;;;;11.14;44.66;99079.48;435722;1250;99307;-43
2023/05/12 23:02:54;;;;;;;11.40;5.80;;;;;;;10.87;45.23;99079.34;435906;1261;107805;-42
2023/05/12 23:13:02;;;;;;;7.50;5.40;;;;;;;10.76;45.58;99082.95;435864;1252;99294;-42
2023/05/12 23:33:09;;;;;;;10.90;6.20;;;;;;;10.40;46.25;99084.92;436095;1249;99330;-41
2023/05/12 23:43:16;;;;;;;11.50;5.80;;;;;;;10.24;46.85;99079.13;436109;1253;112352;-42
2023/05/12 23:53:23;;;;;;;15.70;6.00;;;;;;;10.13;47.41;99073.70;436143;1261;109326;-42
